createdAt,value
2023-02-03T00:00:17.849Z,31.18
2023-02-03T00:01:17.818Z,30.40
2023-02-03T00:02:17.845Z,33.74
2023-02-03T00:03:17.843Z,29.87
2023-02-03T00:04:17.769Z,28.52
2023-02-03T00:05:17.731Z,31.91
2023-02-03T00:06:17.708Z,29.64
2023-02-03T00:07:17.703Z,32.61
2023-02-03T00:08:17.656Z,29.39
2023-02-03T00:30:17.080Z,29.28
2023-02-03T00:31:17.188Z,29.89
2023-02-03T00:32:17.173Z,26.99
2023-02-03T00:33:17.016Z,26.75
2023-02-03T00:34:16.997Z,29.84
2023-02-03T00:35:16.979Z,30.12
2023-02-03T00:36:16.954Z,29.89
2023-02-03T00:37:16.939Z,26.86
2023-02-03T00:38:16.917Z,28.62
2023-02-03T00:39:16.895Z,27.58
2023-02-03T00:40:16.876Z,26.97
2023-02-03T00:41:16.863Z,28.53
2023-02-03T00:42:16.920Z,28.38
2023-02-03T00:43:16.816Z,26.86
2023-02-03T00:44:16.806Z,25.58
2023-02-03T00:45:16.783Z,25.92
2023-02-03T00:46:16.875Z,25.00
2023-02-03T00:47:16.744Z,28.01
2023-02-03T00:48:16.725Z,29.90
2023-02-03T00:49:16.741Z,25.51
2023-02-03T00:50:17.105Z,28.47
2023-02-03T00:51:17.590Z,28.15
2023-02-03T00:52:16.666Z,25.08
2023-02-03T00:53:16.632Z,27.28
2023-02-03T00:54:16.628Z,26.10
2023-02-03T00:55:16.631Z,26.02
2023-02-03T00:56:16.600Z,26.54
2023-02-03T00:57:16.587Z,27.31
2023-02-03T00:58:16.625Z,29.60
2023-02-03T00:59:16.540Z,28.57
2023-02-03T01:00:16.545Z,29.04
2023-02-03T01:01:16.569Z,30.58
2023-02-03T01:02:16.528Z,30.37
2023-02-03T01:03:16.580Z,29.88
2023-02-03T01:04:16.478Z,29.31
2023-02-03T01:05:16.484Z,27.99
2023-02-03T01:06:16.453Z,27.72
2023-02-03T01:07:16.434Z,28.96
2023-02-03T01:08:16.451Z,30.78
2023-02-03T01:09:16.396Z,27.20
2023-02-03T01:10:16.394Z,26.49
2023-02-03T01:11:16.374Z,27.59
2023-02-03T01:12:16.344Z,28.08
2023-02-03T01:13:16.329Z,27.37
2023-02-03T01:14:16.310Z,25.74
2023-02-03T01:15:16.365Z,30.57
2023-02-03T01:16:16.358Z,29.42
2023-02-03T01:17:16.243Z,27.56
2023-02-03T01:18:16.233Z,26.47
2023-02-03T01:19:16.205Z,30.72
2023-02-03T01:20:16.184Z,27.36
2023-02-03T01:21:16.161Z,27.08
2023-02-03T01:22:16.149Z,29.06
2023-02-03T01:23:16.135Z,29.32
2023-02-03T01:24:16.112Z,25.54
2023-02-03T01:25:16.086Z,27.22
2023-02-03T01:26:16.061Z,27.07
2023-02-03T01:27:16.051Z,28.60
2023-02-03T01:28:16.173Z,29.45
2023-02-03T01:29:16.021Z,27.49
2023-02-03T01:30:15.995Z,29.13
2023-02-03T01:31:16.175Z,28.54
2023-02-03T01:32:16.677Z,26.39
2023-02-03T01:33:15.950Z,27.16
2023-02-03T01:34:15.933Z,28.05
2023-02-03T01:35:15.936Z,28.48
2023-02-03T01:36:15.901Z,26.72
2023-02-03T01:37:15.901Z,29.52
2023-02-03T01:38:15.887Z,28.53
2023-02-03T01:39:15.875Z,26.26
2023-02-03T01:40:15.852Z,27.20
2023-02-03T01:41:15.850Z,26.02
2023-02-03T01:42:15.844Z,27.26
2023-02-03T01:55:15.704Z,27.85
2023-02-03T01:57:15.649Z,27.17
2023-02-03T01:58:15.717Z,25.77
2023-02-03T01:59:15.673Z,29.54
2023-02-03T02:00:15.634Z,28.04
2023-02-03T02:01:17.505Z,30.20
2023-02-03T02:02:15.638Z,30.45
2023-02-03T02:03:15.491Z,30.06
2023-02-03T02:04:15.426Z,27.92
2023-02-03T02:05:15.396Z,28.29
2023-02-03T02:06:15.295Z,26.48
2023-02-03T02:07:16.127Z,27.55
2023-02-03T02:08:15.192Z,27.58
2023-02-03T02:09:15.113Z,31.35
2023-02-03T02:10:15.029Z,26.26
2023-02-03T02:11:14.977Z,27.84
2023-02-03T02:12:14.911Z,26.26
2023-02-03T02:13:14.864Z,27.43
2023-02-03T02:14:14.798Z,29.42
2023-02-03T02:15:14.739Z,28.01
2023-02-03T02:16:14.687Z,27.80
2023-02-03T02:17:14.594Z,25.00
2023-02-03T02:18:14.527Z,29.22
2023-02-03T02:19:14.477Z,26.70
2023-02-03T02:20:14.392Z,25.60
2023-02-03T02:21:14.398Z,28.20
2023-02-03T02:22:14.277Z,27.88
2023-02-03T02:23:14.220Z,27.63
2023-02-03T02:24:14.628Z,27.25
2023-02-03T02:25:14.086Z,28.13
2023-02-03T02:26:14.030Z,28.78
2023-02-03T02:27:14.008Z,28.45
2023-02-03T02:28:13.927Z,25.89
2023-02-03T02:29:13.826Z,28.81
2023-02-03T02:30:13.771Z,28.12
2023-02-03T02:31:13.768Z,27.04
2023-02-03T02:32:13.631Z,25.53
2023-02-03T02:33:14.123Z,28.13
2023-02-03T02:34:13.631Z,26.75
2023-02-03T02:35:13.428Z,28.28
2023-02-03T02:36:13.413Z,28.58
2023-02-03T04:40:06.816Z,29.87
2023-02-03T04:41:06.743Z,29.47
2023-02-03T04:42:06.689Z,27.00
2023-02-03T04:43:06.629Z,28.89
2023-02-03T04:44:06.552Z,28.53
2023-02-03T04:45:06.587Z,28.71
2023-02-03T04:46:06.493Z,25.97
2023-02-03T04:47:06.356Z,27.11
2023-02-03T04:48:06.319Z,27.56
2023-02-03T04:49:06.221Z,28.94
2023-02-03T04:50:06.160Z,28.93
2023-02-03T04:51:06.118Z,28.03
2023-02-03T04:52:06.036Z,27.91
2023-02-03T04:53:05.975Z,28.12
2023-02-03T04:54:05.902Z,28.25
2023-02-03T04:55:05.846Z,27.62
2023-02-03T04:56:05.780Z,26.68
2023-02-03T04:57:05.716Z,26.15
2023-02-03T04:58:05.666Z,28.23
2023-02-03T04:59:05.598Z,25.00
2023-02-03T05:00:05.513Z,25.15
2023-02-03T05:01:05.529Z,26.89
2023-02-03T05:02:05.405Z,29.05
2023-02-03T05:03:05.340Z,26.74
2023-02-03T05:04:05.347Z,27.50
2023-02-03T05:05:05.220Z,28.70
2023-02-03T05:06:05.150Z,27.70
2023-02-03T05:07:05.090Z,27.82
2023-02-03T05:08:05.022Z,28.28
2023-02-03T05:09:04.944Z,27.86
2023-02-03T05:10:04.882Z,27.70
2023-02-03T05:11:06.597Z,27.00
2023-02-03T05:12:04.810Z,26.36
2023-02-03T05:13:04.689Z,26.39
2023-02-03T05:14:04.637Z,26.24
2023-02-03T05:15:04.565Z,27.52
2023-02-03T05:16:04.584Z,25.46
2023-02-03T05:17:04.439Z,27.99
2023-02-03T05:18:04.359Z,25.04
2023-02-03T05:19:04.290Z,26.35
2023-02-03T05:20:04.694Z,28.49
2023-02-03T05:21:04.168Z,27.42
2023-02-03T05:22:04.161Z,25.27
2023-02-03T05:23:04.036Z,27.02
2023-02-03T05:24:03.973Z,25.39
2023-02-03T05:25:03.904Z,27.35
2023-02-03T05:26:03.835Z,28.07
2023-02-03T05:27:03.788Z,28.68
2023-02-03T05:28:03.899Z,28.15
2023-02-03T05:29:03.644Z,26.39
2023-02-03T05:30:03.578Z,27.65
2023-02-03T05:31:03.593Z,25.92
2023-02-03T05:32:03.535Z,27.67
2023-02-03T05:33:03.389Z,27.72
2023-02-03T07:38:56.152Z,248.36
2023-02-03T07:40:55.981Z,246.67
2023-02-03T07:41:55.910Z,249.15
2023-02-03T07:42:56.657Z,247.89
2023-02-03T07:43:55.768Z,248.82
2023-02-03T07:44:55.685Z,250.03
2023-02-03T07:45:55.594Z,249.52
2023-02-03T07:46:55.554Z,247.98
2023-02-03T07:47:55.464Z,249.67
2023-02-03T07:48:56.234Z,248.17
2023-02-03T07:49:55.263Z,248.37
2023-02-03T07:50:55.194Z,245.51
2023-02-03T07:51:55.654Z,247.72
2023-02-03T07:52:55.048Z,250.00
2023-02-03T07:53:54.981Z,247.05
2023-02-03T07:54:54.891Z,247.90
2023-02-03T07:55:54.835Z,250.00
2023-02-03T07:56:54.763Z,249.48
2023-02-03T07:57:54.713Z,245.95
2023-02-03T07:58:54.639Z,250.00
2023-02-03T07:59:55.242Z,250.08
2023-02-03T08:00:54.543Z,248.91
2023-02-03T08:01:54.487Z,249.48
2023-02-03T08:02:54.399Z,250.00
2023-02-03T08:03:55.332Z,249.77
2023-02-03T08:04:54.298Z,249.71
2023-02-03T08:05:54.209Z,248.20
2023-02-03T08:06:54.132Z,248.35
2023-02-03T08:07:54.051Z,246.70
2023-02-03T08:08:53.995Z,246.60
2023-02-03T08:09:53.911Z,246.86
2023-02-03T08:10:54.744Z,249.09
2023-02-03T08:11:53.767Z,249.99
2023-02-03T08:12:53.685Z,249.87
2023-02-03T08:13:53.614Z,249.42
2023-02-03T08:14:53.549Z,249.03
2023-02-03T08:15:53.512Z,250.00
2023-02-03T08:16:53.391Z,255.06
2023-02-03T09:40:48.686Z,59.41
2023-02-03T09:41:48.636Z,60.53
2023-02-03T09:42:48.597Z,58.82
2023-02-03T09:43:48.563Z,59.27
2023-02-03T09:44:49.194Z,55.88
2023-02-03T09:45:48.629Z,58.98
2023-02-03T09:46:48.467Z,56.55
2023-02-03T09:47:48.446Z,55.98
2023-02-03T09:48:49.702Z,55.33
2023-02-03T09:49:48.342Z,54.77
2023-02-03T09:50:48.393Z,55.43
2023-02-03T09:51:48.280Z,55.64
2023-02-03T09:52:48.323Z,55.36
2023-02-03T09:53:48.716Z,55.78
2023-02-03T09:54:48.137Z,53.36
2023-02-03T09:55:48.097Z,52.59
2023-02-03T09:56:48.070Z,53.65
2023-02-03T09:57:48.013Z,53.78
2023-02-03T09:58:47.950Z,53.51
2023-02-03T09:59:47.899Z,51.38
2023-02-03T10:00:47.876Z,51.71
2023-02-03T10:01:47.808Z,50.99
2023-02-03T10:02:47.855Z,53.19
2023-02-03T10:03:47.741Z,52.14
2023-02-03T10:04:47.666Z,50.01
2023-02-03T10:05:47.646Z,50.17
2023-02-03T10:06:47.579Z,52.94
2023-02-03T10:07:49.224Z,50.88
2023-02-03T10:08:48.285Z,49.68
2023-02-03T10:09:47.340Z,52.87
2023-02-03T10:10:47.781Z,49.56
2023-02-03T10:11:48.257Z,49.79
2023-02-03T10:12:47.826Z,49.95
2023-02-03T10:13:47.041Z,50.10
2023-02-03T10:14:46.953Z,50.81
2023-02-03T10:15:46.895Z,50.88
2023-02-03T10:16:46.923Z,48.46
2023-02-03T10:17:46.783Z,49.32
2023-02-03T10:18:46.726Z,48.40
2023-02-03T10:19:46.734Z,47.48
2023-02-03T10:20:46.632Z,49.96
2023-02-03T10:21:46.608Z,52.47
2023-02-03T10:22:46.576Z,55.49
2023-02-03T10:23:46.534Z,57.36
2023-02-03T10:24:46.493Z,55.19
2023-02-03T10:25:47.292Z,59.13
2023-02-03T10:26:46.378Z,57.68
2023-02-03T10:27:46.350Z,59.32
2023-02-03T10:28:46.231Z,63.40
2023-02-03T10:29:46.161Z,65.35
2023-02-03T10:30:46.240Z,66.55
2023-02-03T10:31:46.129Z,67.70
2023-02-03T10:32:45.922Z,69.65
2023-02-03T10:33:45.906Z,72.15
2023-02-03T10:34:46.303Z,72.54
2023-02-03T10:35:45.697Z,77.33
2023-02-03T10:36:45.614Z,77.17
2023-02-03T10:37:45.536Z,79.36
2023-02-03T10:38:45.450Z,79.68
2023-02-03T10:39:45.339Z,81.44
2023-02-03T10:40:45.286Z,80.69
2023-02-03T10:41:45.149Z,83.60
2023-02-03T10:42:45.727Z,85.66
2023-02-03T10:43:44.981Z,86.07
2023-02-03T10:44:44.892Z,90.25
2023-02-03T10:45:44.800Z,90.66
2023-02-03T10:46:44.728Z,93.23
2023-02-03T10:47:44.641Z,93.92
2023-02-03T10:48:44.534Z,95.67
2023-02-03T10:49:44.923Z,97.17
2023-02-03T10:50:44.395Z,99.00
2023-02-03T10:51:44.255Z,99.21
2023-02-03T10:52:44.165Z,100.14
2023-02-03T10:53:44.056Z,101.56
2023-02-03T10:54:44.807Z,104.45
2023-02-03T10:55:43.899Z,103.43
2023-02-03T10:56:43.769Z,104.08
2023-02-03T10:57:45.261Z,107.06
2023-02-03T10:58:43.585Z,107.40
2023-02-03T10:59:43.478Z,107.30
2023-02-03T11:00:43.434Z,109.45
2023-02-03T11:26:41.731Z,155.61
2023-02-03T11:38:40.671Z,193.27
2023-02-03T11:39:40.549Z,195.08
2023-02-03T11:40:40.496Z,199.05
2023-02-03T11:41:40.429Z,200.23
2023-02-03T11:42:40.407Z,201.24
2023-02-03T11:43:40.306Z,204.37
2023-02-03T11:44:40.821Z,204.85
2023-02-03T11:45:40.147Z,208.42
2023-02-03T11:46:40.159Z,214.25
2023-02-03T11:47:40.029Z,211.66
2023-02-03T11:48:39.968Z,213.91
2023-02-03T11:49:39.853Z,213.99
2023-02-03T11:50:39.791Z,216.22
2023-02-03T11:51:39.713Z,216.39
2023-02-03T11:52:39.636Z,219.24
2023-02-03T11:53:51.261Z,221.96
2023-02-03T11:54:40.440Z,222.06
2023-02-03T11:55:39.360Z,222.20
2023-02-03T11:56:39.215Z,222.46
2023-02-03T11:57:39.104Z,225.29
2023-02-03T11:58:39.021Z,228.65
2023-02-03T11:59:38.878Z,228.19
2023-02-03T12:00:38.756Z,231.37
2023-02-03T12:01:38.637Z,231.54
2023-02-03T12:02:38.695Z,230.42
2023-02-03T12:03:38.431Z,230.91
2023-02-03T12:04:38.476Z,227.68
2023-02-03T12:05:38.274Z,225.44
2023-02-03T12:06:38.826Z,224.07
2023-02-03T12:07:38.185Z,222.60
2023-02-03T12:08:38.116Z,220.29
2023-02-03T12:09:38.194Z,219.78
2023-02-03T12:10:38.036Z,215.41
2023-02-03T12:11:37.960Z,213.38
2023-02-03T12:12:37.907Z,211.25
2023-02-03T12:13:37.847Z,211.41
2023-02-03T12:14:37.769Z,209.36
2023-02-03T12:15:37.708Z,209.26
2023-02-03T12:16:37.741Z,209.25
2023-02-03T12:17:37.551Z,208.18
2023-02-03T12:18:37.478Z,206.54
2023-02-03T12:19:37.371Z,205.62
2023-02-03T12:20:37.279Z,205.13
2023-02-03T12:21:37.159Z,204.37
2023-02-03T12:22:37.031Z,203.85
2023-02-03T12:23:36.937Z,202.58
2023-02-03T12:24:36.849Z,202.44
2023-02-03T12:25:36.729Z,201.79
2023-02-03T12:26:37.327Z,200.02
2023-02-03T12:27:36.714Z,198.52
2023-02-03T12:28:36.476Z,199.31
2023-02-03T12:29:36.355Z,199.29
2023-02-03T12:30:36.328Z,196.78
2023-02-03T12:31:36.205Z,195.77
2023-02-03T12:32:36.087Z,195.04
2023-02-03T12:33:36.002Z,196.80
2023-02-03T12:34:35.999Z,195.58
2023-02-03T12:35:35.844Z,193.04
2023-02-03T12:36:35.736Z,193.43
2023-02-03T12:37:35.642Z,192.77
2023-02-03T12:38:35.555Z,190.79
2023-02-03T12:39:35.493Z,192.77
2023-02-03T12:40:35.409Z,189.75
2023-02-03T12:41:35.333Z,189.94
2023-02-03T12:42:35.270Z,190.62
2023-02-03T12:43:35.183Z,188.66
2023-02-03T12:44:35.837Z,187.66
2023-02-03T12:45:35.095Z,186.86
2023-02-03T12:46:34.973Z,186.63
2023-02-03T12:47:34.905Z,188.29
2023-02-03T12:48:34.853Z,185.00
2023-02-03T12:49:34.792Z,187.10
2023-02-03T12:50:34.720Z,184.74
2023-02-03T12:51:34.665Z,183.39
2023-02-03T12:52:34.605Z,185.39
2023-02-03T12:53:34.545Z,184.55
2023-02-03T12:54:34.490Z,183.22
2023-02-03T12:55:34.439Z,182.25
2023-02-03T12:56:34.454Z,180.47
2023-02-03T12:57:34.328Z,181.86
2023-02-03T12:58:34.814Z,179.40
2023-02-03T12:59:34.237Z,181.47
2023-02-03T13:00:34.864Z,179.39
2023-02-03T13:01:34.137Z,180.94
2023-02-03T13:02:34.140Z,177.76
2023-02-03T13:03:34.152Z,180.69
2023-02-03T13:04:34.008Z,177.50
2023-02-03T13:05:34.029Z,176.24
2023-02-03T13:06:33.932Z,175.08
2023-02-03T13:07:33.935Z,175.79
2023-02-03T13:08:33.851Z,175.38
2023-02-03T13:09:33.828Z,174.54
2023-02-03T13:10:33.847Z,173.40
2023-02-03T13:11:33.750Z,175.94
2023-02-03T13:12:33.716Z,172.76
2023-02-03T13:13:33.688Z,172.03
2023-02-03T13:14:33.642Z,175.88
2023-02-03T13:15:33.606Z,169.22
2023-02-03T13:16:34.420Z,172.16
2023-02-03T13:17:33.529Z,172.33
2023-02-03T13:18:33.502Z,170.86
2023-02-03T13:19:33.499Z,169.70
2023-02-03T13:20:33.454Z,170.02
2023-02-03T13:21:33.415Z,171.55
2023-02-03T13:22:33.392Z,172.45
2023-02-03T13:23:33.375Z,171.08
2023-02-03T16:27:23.954Z,104.17
2023-02-03T16:30:23.765Z,103.65
2023-02-03T16:31:23.762Z,105.20
2023-02-03T17:16:20.424Z,91.70
2023-02-03T17:24:19.810Z,87.35
2023-02-03T17:25:19.736Z,89.55
2023-02-03T17:26:19.701Z,88.11
2023-02-03T17:27:19.594Z,88.73
2023-02-03T17:28:19.566Z,87.10
2023-02-03T17:29:19.457Z,86.25
2023-02-03T17:30:19.371Z,87.11
2023-02-03T17:31:19.478Z,87.35
2023-02-03T17:32:19.351Z,87.16
2023-02-03T17:33:19.179Z,88.66
2023-02-03T17:34:19.119Z,87.74
2023-02-03T17:35:19.025Z,86.32
2023-02-03T17:36:19.017Z,84.99
2023-02-03T17:37:18.902Z,84.72
2023-02-03T17:38:18.830Z,82.71
2023-02-03T17:53:49.720Z,25.00
2023-02-03T17:54:49.721Z,25.00
2023-02-03T17:55:49.718Z,25.00
2023-02-03T17:56:49.710Z,25.00
2023-02-03T17:57:49.703Z,25.00
2023-02-03T17:58:49.704Z,25.47
2023-02-03T17:59:49.711Z,24.53
2023-02-03T18:00:49.813Z,25.88
2023-02-03T18:01:49.742Z,25.00
2023-02-03T18:02:49.729Z,25.70
2023-02-03T18:03:49.789Z,27.86
2023-02-03T18:04:49.708Z,26.07
2023-02-03T18:05:49.799Z,28.95
2023-02-03T18:06:49.718Z,27.72
2023-02-03T18:07:50.064Z,26.90
2023-02-03T18:08:50.178Z,25.95
2023-02-03T18:09:49.721Z,27.30
2023-02-03T18:10:49.724Z,26.45
2023-02-03T18:11:49.732Z,31.75
2023-02-03T18:12:49.718Z,26.53
2023-02-03T18:13:49.726Z,25.59
2023-02-03T18:14:49.723Z,30.66
2023-02-03T18:15:49.714Z,25.97
2023-02-03T18:16:49.753Z,28.34
2023-02-03T18:17:49.714Z,27.17
2023-02-03T18:18:49.714Z,26.14
2023-02-03T18:19:55.846Z,27.62
2023-02-03T18:20:50.700Z,27.93
2023-02-03T18:21:49.700Z,27.91
2023-02-03T18:22:49.713Z,28.14
2023-02-03T18:23:49.704Z,26.38
2023-02-03T18:24:49.704Z,27.56
2023-02-03T18:25:49.698Z,29.30
2023-02-03T18:26:49.701Z,28.73
2023-02-03T18:27:50.742Z,28.94
2023-02-03T18:28:49.681Z,29.04
2023-02-03T18:29:49.713Z,27.21
2023-02-03T18:30:49.810Z,25.31
2023-02-03T18:31:49.694Z,26.81
2023-02-03T18:32:49.688Z,26.48
2023-02-03T18:33:49.685Z,26.88
2023-02-03T18:34:49.712Z,26.33
2023-02-03T18:35:49.684Z,25.94
2023-02-03T18:36:49.822Z,26.80
2023-02-03T18:37:49.689Z,29.48
2023-02-03T18:38:49.722Z,26.35
2023-02-03T18:39:49.706Z,30.02
2023-02-03T18:40:49.717Z,29.09
2023-02-03T18:41:49.741Z,27.24
2023-02-03T18:42:49.786Z,26.79
2023-02-03T18:43:49.825Z,30.44
2023-02-03T18:44:49.863Z,30.01
2023-02-03T18:45:49.994Z,29.81
2023-02-03T18:46:49.956Z,30.77
2023-02-03T18:47:49.996Z,28.76
2023-02-03T18:48:50.032Z,28.39
2023-02-03T18:49:50.070Z,31.12
2023-02-03T18:50:50.126Z,27.40
2023-02-03T18:51:50.171Z,28.01
2023-02-03T18:52:50.195Z,28.59
2023-02-03T18:53:50.227Z,27.31
2023-02-03T18:54:50.283Z,25.44
2023-02-03T18:55:50.310Z,28.15
2023-02-03T18:56:50.361Z,28.50
2023-02-03T18:57:50.391Z,28.37
2023-02-03T18:58:50.498Z,29.85
2023-02-03T18:59:50.460Z,28.81
2023-02-03T19:00:50.901Z,27.65
2023-02-03T19:01:50.547Z,29.26
2023-02-03T19:02:50.663Z,29.78
2023-02-03T19:03:50.639Z,28.61
2023-02-03T19:04:50.648Z,27.56
2023-02-03T19:05:50.696Z,25.63
2023-02-03T19:06:50.735Z,30.14
2023-02-03T19:07:50.774Z,27.67
2023-02-03T19:08:50.814Z,28.42
2023-02-03T19:09:50.859Z,25.51
2023-02-03T19:10:50.989Z,27.11
2023-02-03T19:11:50.933Z,26.70
2023-02-03T19:12:50.990Z,27.26
2023-02-03T19:13:51.058Z,30.69
2023-02-03T19:14:51.058Z,28.48
2023-02-03T19:15:51.149Z,27.19
2023-02-03T19:16:51.159Z,32.96
2023-02-03T19:17:51.176Z,28.10
2023-02-03T19:18:51.214Z,27.51
2023-02-03T19:19:51.261Z,28.29
2023-02-03T19:20:51.313Z,28.28
2023-02-03T19:21:51.354Z,28.49
2023-02-03T19:22:51.429Z,29.67
2023-02-03T19:23:51.435Z,28.28
2023-02-03T19:24:52.404Z,26.30
2023-02-03T19:25:51.513Z,29.49
2023-02-03T19:26:51.561Z,30.41
2023-02-03T19:27:51.633Z,29.08
2023-02-03T19:28:51.644Z,28.37
2023-02-03T19:29:51.710Z,29.61
2023-02-03T19:30:57.473Z,28.16
2023-02-03T19:31:52.799Z,28.38
2023-02-03T19:32:51.763Z,28.55
2023-02-03T19:33:51.750Z,28.80
2023-02-03T19:34:51.765Z,28.60
2023-02-03T19:35:51.820Z,27.73
2023-02-03T19:36:52.399Z,26.85
2023-02-03T19:37:51.767Z,25.00
2023-02-03T19:38:51.763Z,28.14
2023-02-03T19:39:51.776Z,28.50
2023-02-03T19:40:51.802Z,27.54
2023-02-03T19:41:51.827Z,28.92
2023-02-03T19:42:51.855Z,25.96
2023-02-03T19:43:51.913Z,30.86
2023-02-03T19:44:51.936Z,29.56
2023-02-03T19:45:51.993Z,30.20
2023-02-03T19:46:52.039Z,30.92
2023-02-03T19:47:52.064Z,28.54
2023-02-03T19:48:52.169Z,32.09
2023-02-03T19:49:52.244Z,27.49
2023-02-03T19:50:52.205Z,28.73
2023-02-03T19:51:52.266Z,31.47
2023-02-03T19:52:52.364Z,27.53
2023-02-03T19:53:53.707Z,28.21
2023-02-03T19:54:52.482Z,25.91
2023-02-03T19:55:52.442Z,26.07
2023-02-03T19:56:52.549Z,25.90
2023-02-03T19:57:52.545Z,28.19
2023-02-03T19:58:52.602Z,29.59
2023-02-03T19:59:53.434Z,27.51
2023-02-03T20:00:52.690Z,29.70
2023-02-03T20:01:52.805Z,27.40
2023-02-03T20:02:52.787Z,25.98
2023-02-03T20:03:52.836Z,29.10
2023-02-03T20:04:52.953Z,29.59
2023-02-03T20:05:52.939Z,30.23
2023-02-03T20:06:52.956Z,25.89
2023-02-03T20:07:53.013Z,30.49
2023-02-03T20:08:53.065Z,27.55
2023-02-03T20:09:53.092Z,29.57
2023-02-03T20:10:53.185Z,29.13
2023-02-03T20:11:53.197Z,29.71
2023-02-03T20:12:53.249Z,30.47
2023-02-03T20:13:53.278Z,28.35
2023-02-03T20:14:53.336Z,28.11
2023-02-03T20:15:53.400Z,31.73
2023-02-03T20:16:53.440Z,26.23
2023-02-03T20:17:53.475Z,28.79
2023-02-03T20:18:53.609Z,27.10
2023-02-03T20:20:53.629Z,28.02
2023-02-03T20:21:53.680Z,28.96
2023-02-03T20:22:53.719Z,30.21
2023-02-03T20:23:53.769Z,26.02
2023-02-03T20:24:53.812Z,27.41
2023-02-03T20:25:53.856Z,26.58
2023-02-03T20:26:53.908Z,26.23
2023-02-03T20:27:53.976Z,27.70
2023-02-03T20:28:54.011Z,29.11
2023-02-03T20:29:54.056Z,26.24
2023-02-03T20:30:54.133Z,29.10
2023-02-03T20:31:54.194Z,27.79
2023-02-03T20:32:54.193Z,28.13
2023-02-03T20:33:54.239Z,30.42
2023-02-03T20:34:54.309Z,27.53
2023-02-03T20:35:54.339Z,28.10
2023-02-03T20:36:54.387Z,27.44
2023-02-03T20:37:54.443Z,27.16
2023-02-03T20:38:54.486Z,28.61
2023-02-03T20:39:54.542Z,27.49
2023-02-03T20:40:54.673Z,29.81
2023-02-03T20:41:54.679Z,27.87
2023-02-03T20:44:54.785Z,28.49
2023-02-03T21:44:58.131Z,29.53
2023-02-03T21:45:58.237Z,28.22
2023-02-03T21:46:58.254Z,28.29
2023-02-03T21:47:58.334Z,26.57
2023-02-03T21:48:58.374Z,28.27
2023-02-03T21:49:58.408Z,25.89
2023-02-03T21:50:58.470Z,26.40
2023-02-03T21:51:58.538Z,29.16
2023-02-03T21:52:58.580Z,28.77
2023-02-03T21:53:58.629Z,28.31
2023-02-03T21:54:58.776Z,29.40
2023-02-03T21:55:58.753Z,26.84
2023-02-03T21:56:58.804Z,25.76
2023-02-03T21:57:58.863Z,27.18
2023-02-03T21:58:59.012Z,29.73
2023-02-03T21:59:58.979Z,28.52
2023-02-03T22:00:59.070Z,29.40
2023-02-03T22:01:59.082Z,31.06
2023-02-03T22:02:59.186Z,34.29
2023-02-03T22:03:59.200Z,27.38
2023-02-03T22:04:59.241Z,28.74
2023-02-03T22:05:59.296Z,29.01
2023-02-03T22:06:59.340Z,27.64
2023-02-03T22:07:59.401Z,30.55
2023-02-03T22:08:59.469Z,27.62
2023-02-03T22:09:59.514Z,30.13
2023-02-03T22:10:59.573Z,29.76
2023-02-03T22:12:01.286Z,30.21
2023-02-03T22:12:59.681Z,30.02
2023-02-03T22:13:59.752Z,31.88
2023-02-03T22:14:59.806Z,31.59
2023-02-03T22:15:59.862Z,29.36
2023-02-03T22:17:00.038Z,29.86
2023-02-03T22:17:59.975Z,29.46
2023-02-03T22:19:00.032Z,27.87
2023-02-03T22:20:00.108Z,30.42
2023-02-03T22:21:00.136Z,27.63
2023-02-03T22:22:00.198Z,27.27
2023-02-03T22:23:00.233Z,30.62
2023-02-03T22:24:00.427Z,31.23
2023-02-03T22:25:00.341Z,31.20
2023-02-03T22:26:00.424Z,29.70
2023-02-03T22:27:00.458Z,27.40
2023-02-03T22:28:00.595Z,29.00
2023-02-03T22:29:00.585Z,28.11
2023-02-03T22:30:01.119Z,33.21
2023-02-03T22:31:00.773Z,29.89
2023-02-03T22:32:00.868Z,31.48
2023-02-03T22:33:00.798Z,28.20
2023-02-03T22:34:00.869Z,28.22
2023-02-03T22:35:00.922Z,28.30
2023-02-03T22:36:00.983Z,25.76
2023-02-03T22:37:01.032Z,28.92
2023-02-03T22:38:01.082Z,29.24
2023-02-03T22:39:01.138Z,29.12
2023-02-03T22:40:01.493Z,28.15
2023-02-03T22:41:01.267Z,29.50
2023-02-03T22:42:01.342Z,28.53
2023-02-03T22:43:01.401Z,26.14
2023-02-03T22:44:01.455Z,27.48
2023-02-03T22:45:01.539Z,31.02
2023-02-03T22:47:01.626Z,25.00
2023-02-03T22:48:01.681Z,29.28
2023-02-03T22:49:01.744Z,29.46
2023-02-03T22:50:01.832Z,30.75
2023-02-03T22:51:01.859Z,30.15
2023-02-03T22:52:01.905Z,30.12
2023-02-03T22:53:01.972Z,30.69
2023-02-03T22:54:02.013Z,27.51
2023-02-03T22:55:02.098Z,33.19
2023-02-03T22:56:02.147Z,28.50
2023-02-03T22:57:02.225Z,27.75
2023-02-03T22:58:02.252Z,29.11
2023-02-03T22:59:02.361Z,30.98
2023-02-03T23:00:02.390Z,29.37
2023-02-03T23:01:02.437Z,28.12
2023-02-03T23:02:02.497Z,31.03
2023-02-03T23:03:02.659Z,27.70
2023-02-03T23:04:02.612Z,29.09
2023-02-03T23:05:02.696Z,25.34
2023-02-03T23:06:02.734Z,29.53
2023-02-03T23:07:02.810Z,27.14
2023-02-03T23:08:02.850Z,31.44
2023-02-03T23:09:02.990Z,27.05
2023-02-03T23:11:03.027Z,30.81
2023-02-03T23:12:03.084Z,25.97
2023-02-03T23:13:03.147Z,28.70
2023-02-03T23:14:03.200Z,29.80
2023-02-03T23:15:03.268Z,29.44
2023-02-03T23:17:03.377Z,27.31
2023-02-03T23:18:03.447Z,28.48
